createdAt,value
2022-11-07T00:01:54.866Z,2.67
2022-11-07T00:04:22.460Z,1.17
2022-11-07T00:06:50.113Z,1.63
2022-11-07T00:09:17.661Z,1.90
2022-11-07T00:11:45.329Z,2.25
2022-11-07T00:14:13.851Z,1.23
2022-11-07T00:16:41.497Z,1.67
2022-11-07T00:19:09.143Z,1.00
2022-11-07T00:21:36.690Z,1.85
2022-11-07T00:24:04.563Z,1.52
2022-11-07T00:26:32.148Z,2.20
2022-11-07T00:28:59.707Z,1.35
2022-11-07T00:31:27.273Z,2.22
2022-11-07T00:33:54.825Z,1.23
2022-11-07T00:36:27.050Z,0.80
2022-11-07T00:38:55.140Z,1.00
2022-11-07T00:41:23.081Z,1.20
2022-11-07T00:43:50.697Z,1.00
2022-11-07T00:46:19.531Z,1.90
2022-11-07T00:48:47.481Z,2.35
2022-11-07T00:51:16.271Z,0.90
2022-11-07T00:53:44.224Z,1.13
2022-11-07T00:56:13.195Z,0.85
2022-11-07T00:58:42.580Z,1.10
2022-11-07T01:01:11.341Z,1.35
2022-11-07T01:03:57.716Z,2.15
2022-11-07T01:06:25.558Z,0.80
2022-11-07T01:08:54.345Z,0.73
2022-11-07T01:11:22.120Z,0.93
2022-11-07T01:13:49.713Z,0.80
2022-11-07T01:16:17.371Z,1.98
2022-11-07T01:18:44.968Z,1.25
2022-11-07T01:21:16.428Z,1.67
2022-11-07T01:23:44.167Z,1.17
2022-11-07T01:26:12.666Z,1.10
2022-11-07T01:28:40.226Z,3.35
2022-11-07T01:31:08.927Z,1.80
2022-11-07T01:33:36.695Z,1.77
2022-11-07T01:36:06.363Z,1.30
2022-11-07T01:38:34.044Z,0.93
2022-11-07T01:41:20.243Z,2.45
2022-11-07T01:43:49.626Z,1.08
2022-11-07T01:46:17.178Z,2.55
2022-11-07T01:48:47.614Z,1.27
2022-11-07T01:51:15.615Z,1.88
2022-11-07T01:53:43.260Z,2.25
2022-11-07T01:56:14.237Z,1.20
2022-11-07T01:58:41.939Z,1.07
2022-11-07T02:01:09.635Z,1.60
2022-11-07T02:03:37.490Z,1.98
2022-11-07T02:06:07.065Z,0.98
2022-11-07T02:08:35.011Z,1.95
2022-11-07T02:11:03.112Z,1.38
2022-11-07T02:13:32.039Z,1.70
2022-11-07T02:16:02.470Z,2.03
2022-11-07T02:18:30.075Z,1.17
2022-11-07T02:20:59.954Z,0.85
2022-11-07T02:23:29.621Z,2.97
2022-11-07T02:25:57.377Z,1.95
2022-11-07T02:28:26.235Z,1.70
2022-11-07T02:30:53.788Z,1.48
2022-11-07T02:33:23.252Z,1.10
2022-11-07T02:35:51.821Z,1.52
2022-11-07T02:38:22.242Z,1.23
2022-11-07T02:40:56.141Z,1.05
2022-11-07T02:43:26.738Z,1.30
2022-11-07T02:45:54.941Z,4.60
2022-11-07T02:48:22.481Z,1.35
2022-11-07T02:50:50.020Z,0.80
2022-11-07T02:53:17.887Z,2.10
2022-11-07T02:55:45.769Z,0.90
2022-11-07T02:58:13.316Z,1.77
2022-11-07T03:00:40.860Z,0.93
2022-11-07T03:03:08.557Z,1.20
2022-11-07T03:05:36.121Z,1.00
2022-11-07T03:08:03.734Z,1.83
2022-11-07T03:10:31.353Z,2.05
2022-11-07T03:12:58.881Z,1.00
2022-11-07T03:15:26.429Z,1.00
2022-11-07T03:17:54.080Z,2.17
2022-11-07T03:20:21.729Z,2.85
2022-11-07T03:22:49.268Z,2.55
2022-11-07T03:25:16.902Z,1.35
2022-11-07T03:27:48.472Z,3.88
2022-11-07T03:30:16.191Z,1.25
2022-11-07T03:32:43.873Z,2.45
2022-11-07T03:35:11.430Z,2.88
2022-11-07T03:37:38.970Z,1.15
2022-11-07T03:40:06.953Z,2.58
2022-11-07T03:42:38.768Z,0.93
2022-11-07T03:47:37.026Z,0.90
2022-11-07T03:50:04.921Z,2.17
2022-11-07T03:52:32.567Z,2.80
2022-11-07T03:55:00.227Z,2.63
2022-11-07T03:57:27.762Z,1.58
2022-11-07T03:59:55.314Z,1.80
2022-11-07T04:02:25.962Z,2.75
2022-11-07T04:04:53.818Z,3.13
2022-11-07T04:07:21.359Z,1.27
2022-11-07T04:09:48.946Z,1.80
2022-11-07T04:12:35.175Z,1.55
2022-11-07T04:15:21.388Z,2.95
2022-11-07T04:17:48.901Z,1.23
2022-11-07T04:20:16.456Z,4.10
2022-11-07T04:22:44.049Z,1.70
2022-11-07T04:25:12.118Z,1.55
2022-11-07T04:27:42.745Z,1.88
2022-11-07T04:30:19.603Z,2.60
2022-11-07T04:32:51.752Z,1.45
2022-11-07T04:37:47.749Z,1.52
2022-11-07T04:40:15.878Z,1.15
2022-11-07T04:42:43.631Z,1.15
2022-11-07T04:45:11.424Z,1.23
2022-11-07T04:47:40.554Z,1.83
2022-11-07T04:50:10.093Z,1.90
2022-11-07T04:52:38.782Z,1.48
2022-11-07T04:55:06.865Z,0.93
2022-11-07T04:57:34.396Z,1.25
2022-11-07T05:00:02.573Z,2.03
2022-11-07T05:02:30.143Z,2.55
2022-11-07T05:04:58.830Z,1.05
2022-11-07T05:07:26.362Z,1.08
2022-11-07T05:09:53.897Z,1.40
2022-11-07T05:12:21.505Z,1.35
2022-11-07T05:14:49.023Z,1.75
2022-11-07T05:17:17.029Z,2.17
2022-11-07T05:19:45.079Z,3.00
2022-11-07T05:22:31.263Z,1.33
2022-11-07T05:24:58.802Z,2.22
2022-11-07T05:27:26.700Z,2.42
2022-11-07T05:29:54.232Z,2.45
2022-11-07T05:32:21.784Z,2.10
2022-11-07T05:34:49.862Z,4.80
2022-11-07T05:37:17.427Z,2.33
2022-11-07T05:39:44.994Z,3.08
2022-11-07T05:42:12.614Z,2.05
2022-11-07T05:44:40.138Z,1.48
2022-11-07T05:47:07.697Z,3.30
2022-11-07T05:49:35.336Z,2.78
2022-11-07T05:52:02.875Z,1.75
2022-11-07T05:54:30.473Z,3.22
2022-11-07T05:56:58.377Z,2.35
2022-11-07T05:59:26.542Z,3.92
2022-11-07T06:01:54.327Z,4.53
2022-11-07T06:04:22.243Z,2.35
2022-11-07T06:06:49.812Z,2.28
2022-11-07T06:09:17.373Z,2.90
2022-11-07T06:11:45.010Z,1.92
2022-11-07T06:14:12.546Z,1.65
2022-11-07T06:16:40.080Z,4.20
2022-11-07T06:19:07.704Z,2.97
2022-11-07T06:21:35.595Z,5.88
2022-11-07T06:24:03.552Z,5.60
2022-11-07T06:26:31.293Z,2.90
2022-11-07T06:28:58.791Z,1.98
2022-11-07T06:31:27.402Z,1.75
2022-11-07T06:33:54.957Z,4.35
2022-11-07T06:36:22.582Z,2.53
2022-11-07T06:38:54.753Z,4.53
2022-11-07T06:41:22.266Z,2.58
2022-11-07T06:43:51.181Z,3.45
2022-11-07T06:46:19.702Z,4.15
2022-11-07T06:48:47.325Z,3.72
2022-11-07T06:51:14.835Z,2.05
2022-11-07T06:53:42.406Z,2.80
2022-11-07T06:56:13.423Z,3.35
2022-11-07T06:58:41.124Z,1.67
2022-11-07T07:01:13.150Z,2.88
2022-11-07T07:03:41.430Z,3.58
2022-11-07T07:06:12.343Z,2.00
2022-11-07T07:08:40.208Z,2.25
2022-11-07T07:11:09.102Z,4.35
2022-11-07T07:13:36.679Z,2.30
2022-11-07T07:16:05.465Z,3.60
2022-11-07T07:18:33.483Z,4.72
2022-11-07T07:21:11.757Z,1.85
2022-11-07T07:23:39.741Z,3.03
2022-11-07T07:26:08.930Z,4.28
2022-11-07T07:28:37.299Z,2.30
2022-11-07T07:31:08.870Z,1.40
2022-11-07T07:33:36.546Z,2.50
2022-11-07T07:36:04.144Z,3.13
2022-11-07T07:38:31.757Z,4.25
2022-11-07T07:40:59.843Z,2.72
2022-11-07T07:43:27.941Z,3.30
2022-11-07T07:45:59.266Z,2.15
2022-11-07T07:48:26.839Z,5.40
2022-11-07T07:50:54.796Z,3.88
2022-11-07T07:53:22.326Z,1.73
2022-11-07T07:55:49.919Z,2.72
2022-11-07T07:58:17.615Z,2.33
2022-11-07T08:00:45.322Z,3.25
2022-11-07T08:03:13.254Z,1.80
2022-11-07T08:05:41.094Z,1.15
2022-11-07T08:08:09.144Z,1.50
2022-11-07T08:10:43.857Z,2.92
2022-11-07T08:13:11.458Z,2.58
2022-11-07T08:15:39.236Z,1.98
2022-11-07T08:18:06.799Z,1.95
2022-11-07T08:20:34.424Z,2.17
2022-11-07T08:23:02.838Z,2.47
2022-11-07T08:25:30.657Z,1.95
2022-11-07T08:27:58.215Z,1.92
2022-11-07T08:30:31.607Z,1.38
2022-11-07T08:32:59.958Z,3.08
2022-11-07T08:35:27.667Z,1.55
2022-11-07T08:37:55.198Z,2.00
2022-11-07T08:40:22.752Z,1.95
2022-11-07T08:42:50.392Z,1.90
2022-11-07T08:45:17.963Z,4.03
2022-11-07T08:47:45.535Z,1.45
2022-11-07T08:50:13.142Z,3.03
2022-11-07T08:52:40.674Z,3.20
2022-11-07T08:55:10.405Z,1.67
2022-11-07T08:57:37.914Z,0.98
2022-11-07T09:00:06.392Z,1.67
2022-11-07T09:05:21.461Z,0.85
2022-11-07T09:07:49.070Z,1.58
2022-11-07T09:10:16.622Z,1.15
2022-11-07T09:12:51.196Z,2.33
2022-11-07T09:15:19.642Z,0.88
2022-11-07T09:17:48.461Z,0.75
2022-11-07T09:20:16.024Z,1.17
2022-11-07T09:22:43.799Z,2.35
2022-11-07T09:25:11.410Z,1.27
2022-11-07T09:27:39.020Z,2.22
2022-11-07T09:30:06.827Z,3.60
2022-11-07T09:32:50.307Z,1.65
2022-11-07T09:35:18.116Z,1.40
2022-11-07T09:37:45.650Z,1.52
2022-11-07T09:40:16.227Z,1.10
2022-11-07T09:42:51.377Z,1.63
2022-11-07T09:45:18.977Z,3.30
2022-11-07T09:47:54.386Z,2.90
2022-11-07T09:50:21.900Z,2.17
2022-11-07T09:52:53.288Z,0.82
2022-11-07T09:55:26.967Z,2.67
2022-11-07T09:57:56.226Z,3.05
2022-11-07T10:00:23.803Z,2.17
2022-11-07T10:02:53.863Z,2.40
2022-11-07T10:05:30.332Z,3.53
2022-11-07T10:07:57.838Z,2.65
2022-11-07T10:10:39.993Z,1.67
2022-11-07T10:13:26.226Z,1.60
2022-11-07T10:16:12.938Z,1.42
2022-11-07T10:18:45.241Z,2.90
2022-11-07T10:21:41.775Z,2.90
2022-11-07T10:24:23.001Z,4.47
2022-11-07T10:26:50.607Z,1.40
2022-11-07T10:29:19.145Z,2.75
2022-11-07T10:31:53.075Z,1.42
2022-11-07T10:34:23.717Z,2.33
2022-11-07T10:36:51.379Z,1.38
2022-11-07T10:39:19.895Z,1.38
2022-11-07T10:41:55.900Z,2.03
2022-11-07T10:44:27.308Z,0.90
2022-11-07T10:46:55.001Z,2.65
2022-11-07T10:49:27.775Z,2.53
2022-11-07T10:51:56.115Z,1.05
2022-11-07T10:54:26.474Z,1.55
2022-11-07T10:57:35.209Z,1.17
2022-11-07T11:00:03.646Z,2.97
2022-11-07T11:02:33.177Z,2.85
2022-11-07T11:05:03.738Z,2.35
2022-11-07T11:07:39.073Z,0.93
2022-11-07T11:10:40.911Z,2.03
2022-11-07T11:13:25.412Z,1.88
2022-11-07T11:15:53.032Z,1.10
2022-11-07T11:18:20.729Z,0.93
2022-11-07T11:21:17.180Z,0.75
2022-11-07T11:23:45.732Z,1.88
2022-11-07T11:26:33.549Z,1.67
2022-11-07T11:29:04.316Z,1.25
2022-11-07T11:31:36.955Z,1.13
2022-11-07T11:34:13.595Z,1.25
2022-11-07T11:36:45.572Z,1.90
2022-11-07T11:39:36.272Z,1.33
2022-11-07T11:42:04.971Z,1.02
2022-11-07T11:44:40.286Z,0.95
2022-11-07T11:47:18.641Z,1.10
2022-11-07T11:50:06.504Z,6.40
2022-11-07T11:52:34.500Z,1.42
2022-11-07T11:55:02.830Z,0.57
2022-11-07T11:57:48.717Z,2.65
2022-11-07T12:00:20.214Z,1.25
2022-11-07T12:03:12.510Z,1.02
2022-11-07T12:05:59.426Z,1.50
2022-11-07T12:08:36.184Z,1.42
2022-11-07T12:11:18.822Z,1.73
2022-11-07T12:13:46.333Z,1.65
2022-11-07T12:16:31.169Z,1.75
2022-11-07T12:19:07.969Z,1.50
2022-11-07T12:21:58.851Z,2.35
2022-11-07T12:24:38.253Z,2.17
2022-11-07T12:27:11.990Z,1.98
2022-11-07T12:29:49.523Z,2.28
2022-11-07T12:32:17.025Z,1.45
2022-11-07T12:34:44.584Z,2.60
2022-11-07T12:37:44.475Z,2.30
2022-11-07T12:40:31.040Z,1.42
2022-11-07T12:43:04.660Z,2.10
2022-11-07T12:45:42.476Z,2.15
2022-11-07T12:48:25.994Z,2.88
2022-11-07T12:51:09.388Z,2.55
2022-11-07T12:53:52.829Z,3.92
2022-11-07T12:56:26.219Z,2.75
2022-11-07T12:58:54.301Z,3.88
2022-11-07T13:01:28.017Z,2.45
2022-11-07T13:03:55.649Z,1.15
2022-11-07T13:06:26.468Z,2.05
2022-11-07T13:09:20.123Z,2.92
2022-11-07T13:11:47.628Z,2.67
2022-11-07T13:14:24.826Z,0.98
2022-11-07T13:17:12.927Z,1.98
2022-11-07T13:19:44.849Z,1.08
2022-11-07T13:24:51.082Z,3.10
2022-11-07T13:27:25.997Z,2.95
2022-11-07T13:29:53.628Z,3.13
2022-11-07T13:32:21.277Z,1.23
2022-11-07T13:34:59.774Z,1.50
2022-11-07T13:37:30.403Z,1.65
2022-11-07T13:40:05.609Z,2.42
2022-11-07T13:42:33.851Z,1.80
2022-11-07T13:45:08.289Z,1.90
2022-11-07T13:47:41.184Z,1.05
2022-11-07T13:50:14.183Z,3.22
2022-11-07T13:52:43.465Z,2.63
2022-11-07T13:55:19.475Z,2.83
2022-11-07T13:57:50.087Z,1.30
2022-11-07T14:00:20.901Z,1.10
2022-11-07T14:02:58.569Z,1.13
2022-11-07T14:05:34.753Z,1.23
2022-11-07T14:08:07.030Z,0.65
2022-11-07T14:10:39.158Z,2.17
2022-11-07T14:13:09.012Z,2.22
2022-11-07T14:15:37.190Z,3.17
2022-11-07T14:18:05.184Z,0.98
2022-11-07T14:20:32.716Z,2.00
2022-11-07T14:23:01.157Z,2.60
2022-11-07T14:25:33.016Z,2.80
2022-11-07T14:30:29.356Z,2.85
2022-11-07T14:32:58.473Z,1.35
2022-11-07T14:35:27.747Z,1.50
2022-11-07T14:37:56.752Z,1.88
2022-11-07T14:40:24.482Z,2.08
2022-11-07T14:42:52.594Z,1.40
2022-11-07T14:45:46.699Z,3.15
2022-11-07T14:48:11.063Z,2.10
2022-11-07T14:50:38.986Z,0.75
2022-11-07T14:53:09.628Z,1.55
2022-11-07T14:55:47.596Z,0.82
2022-11-07T14:58:16.725Z,1.55
2022-11-07T15:00:58.448Z,1.77
2022-11-07T15:03:33.129Z,2.63
2022-11-07T15:06:00.707Z,4.43
2022-11-07T15:08:35.848Z,2.42
2022-11-07T15:11:15.748Z,3.00
2022-11-07T15:13:43.428Z,2.58
2022-11-07T15:16:18.545Z,3.28
2022-11-07T15:18:48.215Z,2.13
2022-11-07T15:21:35.289Z,2.97
2022-11-07T15:24:22.751Z,4.13
2022-11-07T15:26:59.488Z,1.55
2022-11-07T15:29:31.165Z,2.22
2022-11-07T15:32:05.241Z,2.47
2022-11-07T15:34:56.943Z,3.05
2022-11-07T15:37:21.894Z,3.03
2022-11-07T15:39:49.644Z,1.30
2022-11-07T15:42:17.278Z,4.25
2022-11-07T15:44:44.800Z,3.95
2022-11-07T15:47:17.099Z,3.38
2022-11-07T15:49:45.239Z,4.43
2022-11-07T15:52:12.790Z,10.27
2022-11-07T15:54:40.362Z,11.88
2022-11-07T15:57:08.646Z,4.78
2022-11-07T15:59:38.934Z,6.75
2022-11-07T16:02:10.363Z,2.70
2022-11-07T16:04:39.928Z,7.68
2022-11-07T16:07:10.145Z,8.98
2022-11-07T16:09:37.695Z,5.50
2022-11-07T16:12:05.333Z,6.97
2022-11-07T16:14:48.059Z,4.07
2022-11-07T16:17:16.953Z,3.67
2022-11-07T16:19:44.777Z,4.18
2022-11-07T16:22:16.376Z,2.50
2022-11-07T16:24:43.974Z,8.15
2022-11-07T16:27:15.136Z,2.70
2022-11-07T16:29:44.102Z,6.45
2022-11-07T16:32:17.655Z,4.47
2022-11-07T16:34:46.700Z,4.47
2022-11-07T16:37:14.371Z,3.28
2022-11-07T16:39:42.022Z,4.65
2022-11-07T16:42:14.991Z,8.93
2022-11-07T16:44:42.623Z,6.20
2022-11-07T16:47:13.905Z,3.92
2022-11-07T16:49:42.134Z,4.25
2022-11-07T16:52:16.661Z,6.95
2022-11-07T16:54:44.234Z,2.97
2022-11-07T16:57:13.195Z,4.70
2022-11-07T16:59:41.183Z,4.93
2022-11-07T17:02:21.036Z,5.97
2022-11-07T17:04:49.652Z,7.30
2022-11-07T17:07:23.564Z,4.28
2022-11-07T17:09:51.306Z,10.73
2022-11-07T17:12:21.200Z,19.33
2022-11-07T17:14:48.877Z,8.18
2022-11-07T17:17:18.797Z,7.88
2022-11-07T17:19:46.467Z,4.68
2022-11-07T17:22:14.587Z,4.40
2022-11-07T17:24:42.963Z,6.70
2022-11-07T17:27:20.886Z,4.38
2022-11-07T17:29:48.638Z,5.38
2022-11-07T17:32:17.189Z,3.33
2022-11-07T17:34:45.077Z,4.13
2022-11-07T17:37:17.839Z,4.85
2022-11-07T17:39:45.915Z,4.45
2022-11-07T17:42:13.611Z,6.47
2022-11-07T17:44:41.261Z,5.20
2022-11-07T17:47:20.963Z,4.78
2022-11-07T17:49:48.548Z,8.10
2022-11-07T17:52:16.183Z,4.63
2022-11-07T17:54:43.836Z,6.55
2022-11-07T17:57:11.420Z,6.47
2022-11-07T17:59:43.426Z,4.47
2022-11-07T18:02:17.969Z,5.95
2022-11-07T18:04:45.802Z,5.07
2022-11-07T18:07:13.425Z,4.80
2022-11-07T18:09:41.147Z,6.50
2022-11-07T18:12:09.128Z,6.75
2022-11-07T18:14:36.744Z,7.30
2022-11-07T18:17:04.446Z,4.65
2022-11-07T18:19:32.072Z,5.97
2022-11-07T18:21:59.648Z,6.15
2022-11-07T18:24:27.615Z,3.97
2022-11-07T18:26:55.434Z,5.47
2022-11-07T18:29:23.245Z,6.93
2022-11-07T18:31:51.728Z,4.53
2022-11-07T18:34:20.374Z,3.60
2022-11-07T18:36:50.288Z,3.88
2022-11-07T18:39:21.857Z,3.97
2022-11-07T18:41:50.617Z,5.25
2022-11-07T18:44:19.131Z,3.33
2022-11-07T18:46:47.061Z,4.53
2022-11-07T18:49:15.266Z,4.75
2022-11-07T18:51:43.922Z,4.50
2022-11-07T18:54:13.574Z,4.30
2022-11-07T18:56:41.405Z,3.53
2022-11-07T18:59:09.330Z,2.95
2022-11-07T19:01:37.244Z,3.97
2022-11-07T19:04:05.790Z,3.17
2022-11-07T19:06:33.973Z,3.88
2022-11-07T19:09:01.541Z,6.50
2022-11-07T19:11:30.776Z,2.75
2022-11-07T19:14:00.853Z,5.15
2022-11-07T19:16:29.499Z,4.47
2022-11-07T19:18:59.081Z,3.47
2022-11-07T19:21:26.882Z,2.72
2022-11-07T19:23:54.484Z,4.32
2022-11-07T19:26:24.435Z,3.65
2022-11-07T19:28:54.002Z,3.30
2022-11-07T19:31:21.658Z,3.60
2022-11-07T19:33:49.371Z,3.95
2022-11-07T19:36:18.043Z,3.65
2022-11-07T19:38:45.640Z,5.57
2022-11-07T19:41:14.824Z,6.63
2022-11-07T19:43:43.317Z,4.55
2022-11-07T19:46:12.400Z,3.50
2022-11-07T19:48:39.988Z,10.75
2022-11-07T19:51:08.332Z,3.78
2022-11-07T19:53:35.878Z,6.63
2022-11-07T19:56:08.493Z,5.55
2022-11-07T19:58:39.274Z,6.78
2022-11-07T20:01:14.435Z,6.35
2022-11-07T20:03:47.318Z,5.45
2022-11-07T20:06:15.826Z,5.18
2022-11-07T20:08:45.451Z,7.85
2022-11-07T20:11:14.052Z,4.28
2022-11-07T20:13:41.799Z,4.10
2022-11-07T20:16:09.835Z,6.65
2022-11-07T20:18:37.888Z,5.35
2022-11-07T20:21:07.499Z,4.55
2022-11-07T20:23:35.106Z,7.07
2022-11-07T20:26:06.340Z,5.05
2022-11-07T20:28:34.083Z,5.13
2022-11-07T20:31:01.689Z,6.18
2022-11-07T20:33:29.212Z,5.15
2022-11-07T20:35:58.213Z,8.63
2022-11-07T20:38:25.755Z,5.28
2022-11-07T20:40:53.548Z,27.83
2022-11-07T20:43:21.159Z,90.05
2022-11-07T20:45:48.810Z,54.25
2022-11-07T20:48:16.901Z,8.18
2022-11-07T20:50:44.788Z,10.00
2022-11-07T20:53:12.452Z,7.32
2022-11-07T20:55:40.921Z,8.43
2022-11-07T20:58:08.505Z,7.53
2022-11-07T21:00:36.726Z,5.32
2022-11-07T21:03:04.447Z,6.50
2022-11-07T21:05:32.617Z,5.65
2022-11-07T21:08:00.144Z,5.03
2022-11-07T21:10:27.912Z,5.97
2022-11-07T21:12:55.442Z,6.47
2022-11-07T21:15:22.982Z,6.10
2022-11-07T21:17:50.679Z,5.88
2022-11-07T21:20:18.406Z,6.20
2022-11-07T21:22:49.254Z,7.50
2022-11-07T21:25:16.793Z,7.15
2022-11-07T21:27:44.413Z,5.57
2022-11-07T21:30:12.922Z,6.00
2022-11-07T21:32:40.744Z,6.07
2022-11-07T21:35:09.185Z,5.80
2022-11-07T21:37:36.903Z,8.18
2022-11-07T21:40:04.555Z,23.35
2022-11-07T21:42:32.183Z,19.27
2022-11-07T21:44:59.725Z,52.28
2022-11-07T21:47:27.293Z,13.57
2022-11-07T21:49:54.910Z,7.60
2022-11-07T21:52:22.660Z,7.68
2022-11-07T21:54:50.197Z,5.60
2022-11-07T21:57:17.741Z,5.75
2022-11-07T21:59:46.386Z,7.95
2022-11-07T22:02:14.281Z,7.10
2022-11-07T22:04:41.868Z,8.27
2022-11-07T22:07:09.404Z,6.55
2022-11-07T22:09:37.053Z,4.88
2022-11-07T22:12:04.694Z,6.50
2022-11-07T22:14:32.222Z,13.15
2022-11-07T22:16:59.789Z,6.22
2022-11-07T22:19:27.367Z,7.25
2022-11-07T22:21:54.904Z,6.38
2022-11-07T22:24:25.873Z,6.95
2022-11-07T22:26:57.140Z,5.23
2022-11-07T22:29:24.715Z,3.95
2022-11-07T22:31:52.282Z,5.88
2022-11-07T22:34:19.909Z,7.85
2022-11-07T22:36:47.494Z,6.50
2022-11-07T22:39:15.070Z,3.72
2022-11-07T22:41:42.628Z,3.95
2022-11-07T22:44:10.318Z,3.55
2022-11-07T22:46:37.868Z,3.05
2022-11-07T22:49:05.596Z,7.95
2022-11-07T22:51:34.325Z,3.28
2022-11-07T22:54:03.377Z,4.53
2022-11-07T22:56:31.210Z,2.80
2022-11-07T22:58:59.106Z,4.82
2022-11-07T23:01:28.303Z,4.15
2022-11-07T23:03:56.917Z,3.78
2022-11-07T23:06:24.743Z,4.55
2022-11-07T23:08:52.873Z,4.45
2022-11-07T23:14:11.434Z,2.30
2022-11-07T23:16:40.442Z,4.47
2022-11-07T23:19:09.334Z,2.95
2022-11-07T23:21:36.953Z,3.35
2022-11-07T23:24:05.827Z,3.13
2022-11-07T23:26:33.990Z,2.88
2022-11-07T23:29:07.540Z,2.58
2022-11-07T23:31:38.119Z,3.58
2022-11-07T23:34:05.712Z,3.60
2022-11-07T23:36:33.264Z,3.22
2022-11-07T23:39:07.694Z,3.72
2022-11-07T23:41:35.410Z,4.65
2022-11-07T23:44:03.537Z,3.90
2022-11-07T23:46:50.105Z,5.28
2022-11-07T23:49:36.094Z,4.00
2022-11-07T23:52:03.954Z,4.95
2022-11-07T23:54:50.290Z,3.97
2022-11-07T23:57:17.955Z,2.90
